CheckWX is a tool to help pilots better visualize weather data.  It is not intended as a substitute for an official pre-flight weather briefing.

15:12:54 UTC

KMAN METAR
Nampa Municipal Airport
Nampa, Idaho, USA
Current

18 mins ago

KMAN 261455Z AUTO 00000KT 10SM CLR 13/13 A2973 RMK A01
Observed
May-26 @ 14:55 UTC
Visibility
10 SM
Flight Rules
VFR
Cloud Levels
  • Clear skies
Temperature
13°C / 55°F
Dewpoint
13°C / 55°F
Humidity
100%
Altimeter
29.73" Hg
Pressure
1006.82 hPa
Previous

38 mins ago

KMAN 261435Z AUTO 00000KT 10SM CLR 12/12 A2973 RMK A01
Observed
May-26 @ 14:35 UTC
Visibility
10 SM
Flight Rules
VFR
Cloud Levels
  • Clear skies
Temperature
12°C / 54°F
Dewpoint
12°C / 54°F
Humidity
100%
Altimeter
29.73" Hg
Pressure
1006.82 hPa
Previous

58 mins ago

KMAN 261415Z AUTO 00000KT 10SM CLR 12/12 A2973 RMK A01
Observed
May-26 @ 14:15 UTC
Visibility
10 SM
Flight Rules
VFR
Cloud Levels
  • Clear skies
Temperature
12°C / 54°F
Dewpoint
12°C / 54°F
Humidity
100%
Altimeter
29.73" Hg
Pressure
1006.82 hPa